Roosendaal, Netherlands
Current Conditions -  °F | °C
As of 6:55 AM on Sunday 26 Oct 2014 (Local Time) from EHWO Reporting Station
Overcast Overcast  
Wind Chill: 55°   Ceiling: 3800
Heat Index: 55°   Visibility: 6mi
Dew Point: 50°   Wind: 3mph
Humidity: 82%   Direction: 190°S
Pressure: 30.21"   Gusts: NA
Location:  51.53°N, 4.47°E
Report Text: EHWO 260455Z AUTO 19003KT 9999 SCT034 OVC038 13/10 Q1023 BLU
Loading
Personal Weather Stations






























Interactive Weather Map
Tropical Storm Tracking
New forecast layout! Learn more

10-Day Weather Forecast

Advertisements
Track Severe Weather on mobile